Time;durP1;ratioP1;P1;durP2;ratioP2;P2;SDS_P1;SDS_P2;PMS_P1;PMS_P2;Temp;Humidity;BMP_temperature;BMP_pressure;BME280_temperature;BME280_humidity;BME280_pressure;Samples;Min_cycle;Max_cycle;Signal;HPM_P1;HPM_P2
2022/06/12 00:00:09;;;;;;;5.05;3.25;;;16.70;99.90;;;;;;5095852;28;20177;-69
2022/06/12 00:02:35;;;;;;;5.03;2.95;;;16.70;99.90;;;;;;5094593;28;20236;-69
2022/06/12 00:05:01;;;;;;;6.63;3.30;;;16.60;99.90;;;;;;5093792;28;20232;-69
2022/06/12 00:07:27;;;;;;;5.00;3.17;;;16.70;99.90;;;;;;5093880;28;20256;-69
2022/06/12 00:09:53;;;;;;;5.90;3.25;;;16.70;99.90;;;;;;5093826;28;20683;-69
2022/06/12 00:12:19;;;;;;;6.03;3.30;;;16.70;99.90;;;;;;5093585;28;20197;-69
2022/06/12 00:14:45;;;;;;;4.70;3.42;;;16.70;99.90;;;;;;5093566;28;20611;-69
2022/06/12 00:17:11;;;;;;;4.40;3.08;;;16.70;99.90;;;;;;5093662;28;20188;-69
2022/06/12 00:19:40;;;;;;;4.68;3.10;;;16.70;99.90;;;;;;5097823;28;20203;-69
2022/06/12 00:22:06;;;;;;;5.25;4.00;;;16.70;99.90;;;;;;5096316;28;20205;-69
2022/06/12 00:24:32;;;;;;;6.18;3.28;;;16.60;99.90;;;;;;5096293;28;20576;-69
2022/06/12 00:26:59;;;;;;;6.20;3.55;;;16.60;99.90;;;;;;5097517;28;20188;-69
2022/06/12 00:29:30;;;;;;;7.53;3.78;;;16.60;99.90;;;;;;5096315;28;20215;-69
2022/06/12 00:32:16;;;;;;;5.22;3.08;;;16.50;99.90;;;;;;5097537;28;20196;-69
2022/06/12 00:34:48;;;;;;;8.95;3.67;;;16.50;99.90;;;;;;5097437;28;20589;-69
2022/06/12 00:37:15;;;;;;;4.65;3.30;;;16.50;99.90;;;;;;5096478;28;20640;-69
2022/06/12 00:39:42;;;;;;;5.55;3.67;;;16.60;99.90;;;;;;5097375;28;20177;-69
2022/06/12 00:42:16;;;;;;;6.95;3.67;;;16.60;99.90;;;;;;5097232;28;20193;-69
2022/06/12 00:44:42;;;;;;;6.43;3.65;;;16.50;99.90;;;;;;5097568;28;20189;-69
2022/06/12 00:47:12;;;;;;;8.52;3.92;;;16.50;99.90;;;;;;5095825;28;20234;-69
2022/06/12 00:49:53;;;;;;;4.28;3.55;;;16.50;99.90;;;;;;5095984;28;20173;-69
2022/06/12 00:52:45;;;;;;;5.72;3.85;;;16.50;99.90;;;;;;5095890;28;20197;-69
2022/06/12 00:55:26;;;;;;;6.20;3.88;;;16.40;99.90;;;;;;5097028;28;20185;-69
2022/06/12 00:57:56;;;;;;;6.00;3.40;;;16.40;99.90;;;;;;5096866;28;20213;-69
2022/06/12 01:00:22;;;;;;;6.50;3.30;;;16.30;99.90;;;;;;5097534;28;20169;-69
2022/06/12 01:02:49;;;;;;;7.32;3.80;;;16.20;99.90;;;;;;5096736;28;20233;-69
2022/06/12 01:08:06;;;;;;;5.40;3.63;;;16.10;99.90;;;;;;5096815;28;20186;-69
2022/06/12 01:10:33;;;;;;;4.25;2.88;;;16.10;99.90;;;;;;5096999;28;20162;-69
2022/06/12 01:13:07;;;;;;;6.10;3.40;;;16.10;99.90;;;;;;5096749;28;20725;-69
2022/06/12 01:15:42;;;;;;;6.25;3.30;;;16.00;99.90;;;;;;5095290;28;20195;-69
2022/06/12 01:18:10;;;;;;;6.18;3.03;;;16.00;99.90;;;;;;5095080;28;20183;-69
2022/06/12 01:20:52;;;;;;;5.95;3.25;;;15.90;99.90;;;;;;5096576;28;20188;-69
2022/06/12 01:23:38;;;;;;;4.28;3.47;;;15.90;99.90;;;;;;5095180;28;20205;-68
2022/06/12 01:26:25;;;;;;;4.55;3.20;;;15.90;99.90;;;;;;5094867;28;20670;-69
2022/06/12 01:29:03;;;;;;;5.90;3.63;;;15.80;99.90;;;;;;5096087;28;20169;-69
2022/06/12 01:31:41;;;;;;;8.25;3.60;;;15.50;99.90;;;;;;5096535;28;20159;-69
2022/06/12 01:34:15;;;;;;;4.28;3.63;;;15.60;99.90;;;;;;5096571;28;20184;-69
2022/06/12 01:37:18;;;;;;;6.32;3.70;;;15.60;99.90;;;;;;5096384;28;20157;-69
2022/06/12 01:39:58;;;;;;;4.63;3.53;;;15.60;99.90;;;;;;5095097;28;20607;-69
2022/06/12 01:42:44;;;;;;;9.07;3.95;;;15.60;99.90;;;;;;5094757;28;20313;-69
2022/06/12 01:45:19;;;;;;;6.03;3.60;;;15.70;99.90;;;;;;5095987;28;20193;-69
2022/06/12 01:47:55;;;;;;;5.70;3.83;;;15.60;99.90;;;;;;5095812;28;20161;-69
2022/06/12 01:50:42;;;;;;;5.60;3.55;;;15.60;99.90;;;;;;5096262;28;20697;-68
2022/06/12 01:53:52;;;;;;;5.18;3.80;;;15.50;99.90;;;;;;5095959;28;20189;-69
2022/06/12 01:56:45;;;;;;;6.13;3.47;;;15.50;99.90;;;;;;5068129;28;20218;-69
2022/06/12 01:59:21;;;;;;;4.65;3.58;;;15.50;99.90;;;;;;5075123;28;20197;-69
2022/06/12 02:02:14;;;;;;;9.32;4.10;;;15.50;99.90;;;;;;5075434;28;20610;-69
2022/06/12 02:05:05;;;;;;;5.30;3.40;;;15.60;99.90;;;;;;5085451;28;20213;-69
2022/06/12 02:07:40;;;;;;;5.15;3.67;;;15.60;99.90;;;;;;5074216;28;20173;-69
2022/06/12 02:10:14;;;;;;;5.43;4.05;;;15.60;99.90;;;;;;5075688;28;20154;-69
2022/06/12 02:15:50;;;;;;;3.78;3.40;;;15.40;99.90;;;;;;5075504;28;20259;-69
2022/06/12 02:18:50;;;;;;;4.88;3.50;;;15.30;99.90;;;;;;5073690;28;20264;-69
2022/06/12 02:21:28;;;;;;;5.53;3.40;;;15.30;99.90;;;;;;5071113;28;20190;-69
2022/06/12 02:24:04;;;;;;;5.40;3.30;;;15.30;99.90;;;;;;5073573;28;20244;-69
2022/06/12 02:26:38;;;;;;;5.13;3.67;;;15.30;99.90;;;;;;5080933;28;20180;-69
2022/06/12 02:29:11;;;;;;;7.75;3.67;;;15.40;99.90;;;;;;5095141;28;20158;-68
2022/06/12 02:31:42;;;;;;;5.40;3.63;;;15.40;99.90;;;;;;5095387;28;20154;-69
2022/06/12 02:34:13;;;;;;;5.85;4.18;;;15.20;99.90;;;;;;5094856;28;20187;-69
2022/06/12 02:36:45;;;;;;;6.57;4.35;;;15.10;99.90;;;;;;5095600;28;20207;-69
2022/06/12 02:39:17;;;;;;;5.18;3.97;;;15.00;99.90;;;;;;5093765;28;20165;-71
2022/06/12 02:42:06;;;;;;;5.93;4.40;;;14.90;99.90;;;;;;5094137;28;20168;-69
2022/06/12 02:44:56;;;;;;;7.80;4.15;;;14.70;99.90;;;;;;5095092;28;20585;-69
2022/06/12 02:47:26;;;;;;;7.20;4.65;;;14.60;99.90;;;;;;5093338;28;20683;-69
2022/06/12 02:49:55;;;;;;;10.82;4.85;;;14.50;99.90;;;;;;5095064;28;20585;-69
2022/06/12 02:52:37;;;;;;;8.15;4.80;;;14.40;99.90;;;;;;5093332;28;20197;-69
2022/06/12 02:55:18;;;;;;;8.93;4.78;;;14.30;99.90;;;;;;5094688;28;20165;-68
2022/06/12 02:57:55;;;;;;;6.88;4.57;;;14.30;99.90;;;;;;5094455;28;20184;-69
2022/06/12 03:00:30;;;;;;;8.27;5.20;;;14.20;99.90;;;;;;5094891;28;20593;-68
2022/06/12 03:03:19;;;;;;;9.10;5.15;;;14.20;99.90;;;;;;5094616;28;20563;-68
2022/06/12 03:05:49;;;;;;;12.30;6.28;;;14.20;99.90;;;;;;5094722;28;20185;-68
2022/06/12 03:08:20;;;;;;;11.75;5.55;;;14.20;99.90;;;;;;5094363;28;20152;-69
2022/06/12 03:11:00;;;;;;;6.70;4.88;;;14.20;99.90;;;;;;5094676;28;20516;-69
2022/06/12 03:13:29;;;;;;;7.80;5.28;;;14.20;99.90;;;;;;5094826;28;20199;-69
2022/06/12 03:16:20;;;;;;;8.20;5.93;;;14.20;99.90;;;;;;5094541;28;20230;-69
2022/06/12 03:18:54;;;;;;;9.52;5.47;;;14.30;99.90;;;;;;5094085;28;20150;-69
2022/06/12 03:21:26;;;;;;;9.73;5.38;;;14.20;99.90;;;;;;5093235;28;20592;-69
2022/06/12 03:24:20;;;;;;;9.15;5.22;;;14.20;99.90;;;;;;5094056;28;20669;-68
2022/06/12 03:27:04;;;;;;;9.30;5.40;;;14.20;99.90;;;;;;5094066;28;20203;-68
2022/06/12 03:29:32;;;;;;;13.13;5.63;;;14.20;99.90;;;;;;5094047;28;20158;-69
2022/06/12 03:32:05;;;;;;;9.57;5.38;;;14.10;99.90;;;;;;5092444;28;20207;-70
2022/06/12 03:35:06;;;;;;;6.80;5.07;;;14.10;99.90;;;;;;5094035;28;20699;-69
2022/06/12 03:37:46;;;;;;;8.45;4.93;;;14.10;99.90;;;;;;5094087;28;20165;-68
2022/06/12 03:40:25;;;;;;;7.57;5.10;;;14.10;99.90;;;;;;5094371;28;20169;-68
2022/06/12 03:43:03;;;;;;;8.75;5.07;;;14.20;99.90;;;;;;5093880;28;20223;-69
2022/06/12 03:45:44;;;;;;;8.30;4.50;;;14.30;99.90;;;;;;5093944;28;20224;-68
2022/06/12 03:48:30;;;;;;;5.32;4.22;;;14.40;99.90;;;;;;5092572;28;20157;-70
2022/06/12 03:51:01;;;;;;;7.50;4.07;;;14.40;99.90;;;;;;5092702;28;20210;-70
2022/06/12 03:53:33;;;;;;;8.15;4.60;;;14.30;99.90;;;;;;5093754;28;20216;-70
2022/06/12 03:59:32;;;;;;;7.13;3.97;;;14.20;99.90;;;;;;5091818;28;20180;-70
2022/06/12 04:02:01;;;;;;;6.47;3.80;;;14.20;99.90;;;;;;5054573;28;20209;-71
2022/06/12 04:04:30;;;;;;;5.47;4.13;;;14.20;99.90;;;;;;5092818;28;20262;-70
2022/06/12 04:06:59;;;;;;;5.10;3.97;;;14.20;99.90;;;;;;5093776;28;20172;-70
2022/06/12 04:09:28;;;;;;;6.85;4.18;;;14.20;99.90;;;;;;5092485;28;20169;-70
2022/06/12 04:12:08;;;;;;;5.30;4.03;;;14.10;99.90;;;;;;5092476;28;20201;-70
2022/06/12 04:14:40;;;;;;;8.25;4.35;;;14.20;99.90;;;;;;5093551;28;20558;-70
2022/06/12 04:17:06;;;;;;;6.53;4.47;;;14.20;99.90;;;;;;5093855;28;20196;-70
2022/06/12 04:19:59;;;;;;;6.30;4.38;;;14.20;99.90;;;;;;5093991;28;20175;-70
2022/06/12 04:22:36;;;;;;;6.30;4.25;;;14.20;99.90;;;;;;5093475;28;20200;-70
2022/06/12 04:25:18;;;;;;;5.75;4.28;;;14.30;99.90;;;;;;5092379;28;20197;-70
2022/06/12 04:27:46;;;;;;;7.32;4.45;;;14.30;99.90;;;;;;5093391;28;20176;-71
2022/06/12 04:30:29;;;;;;;8.25;4.50;;;14.40;99.90;;;;;;5092358;28;20177;-70
2022/06/12 04:33:15;;;;;;;10.10;5.07;;;14.30;99.90;;;;;;5093605;28;20218;-70
2022/06/12 04:35:48;;;;;;;9.80;6.10;;;14.20;99.90;;;;;;5093725;28;20153;-70
2022/06/12 04:38:14;;;;;;;9.80;5.53;;;14.20;99.90;;;;;;5093847;28;20619;-70
2022/06/12 04:40:40;;;;;;;12.35;6.32;;;14.20;99.90;;;;;;5093680;28;20192;-70
2022/06/12 04:43:06;;;;;;;7.95;5.65;;;14.20;99.90;;;;;;5092274;28;20197;-70
2022/06/12 04:45:32;;;;;;;11.00;6.28;;;14.20;99.90;;;;;;5093870;28;20197;-70
2022/06/12 04:47:58;;;;;;;10.48;5.93;;;14.30;99.90;;;;;;5092057;28;20638;-70
2022/06/12 04:50:24;;;;;;;8.07;5.50;;;14.40;99.90;;;;;;5093788;28;20180;-70
2022/06/12 04:52:50;;;;;;;9.15;5.55;;;14.50;99.90;;;;;;5094055;28;20184;-70
2022/06/12 04:55:16;;;;;;;11.57;5.68;;;14.60;99.90;;;;;;5097064;28;20177;-70
2022/06/12 04:57:42;;;;;;;9.00;5.72;;;14.70;99.90;;;;;;5093261;28;20277;-70
2022/06/12 05:00:09;;;;;;;9.50;5.88;;;14.80;99.90;;;;;;5093077;28;20173;-70
2022/06/12 05:02:34;;;;;;;8.93;6.32;;;14.90;99.90;;;;;;5093848;28;20258;-70
2022/06/12 05:05:00;;;;;;;8.60;6.07;;;14.90;99.90;;;;;;5096702;28;20189;-70
2022/06/12 05:07:26;;;;;;;9.60;6.00;;;15.00;99.90;;;;;;5097080;28;20169;-70
2022/06/12 05:09:52;;;;;;;8.32;5.88;;;15.10;99.90;;;;;;5096894;28;20252;-70
2022/06/12 05:12:17;;;;;;;9.52;5.85;;;15.20;99.90;;;;;;5096773;28;20188;-70
2022/06/12 05:14:43;;;;;;;16.83;6.72;;;15.20;99.90;;;;;;5096751;28;20188;-70
2022/06/12 05:17:15;;;;;;;9.75;6.50;;;15.30;99.90;;;;;;5097077;28;20533;-70
2022/06/12 05:19:42;;;;;;;7.97;6.07;;;15.40;99.90;;;;;;5096646;28;20164;-70
2022/06/12 05:22:10;;;;;;;9.48;6.47;;;15.50;99.90;;;;;;5096649;28;20204;-70
2022/06/12 05:24:37;;;;;;;7.50;5.75;;;15.40;99.90;;;;;;5096776;28;20208;-70
2022/06/12 05:27:08;;;;;;;11.02;6.57;;;15.50;99.90;;;;;;5096502;28;20192;-70
2022/06/12 05:29:37;;;;;;;9.18;6.05;;;15.60;99.90;;;;;;5096380;28;20173;-71
2022/06/12 05:32:04;;;;;;;10.75;6.18;;;15.60;99.90;;;;;;5095238;28;20239;-71
2022/06/12 05:34:32;;;;;;;11.00;6.35;;;15.60;99.90;;;;;;5095781;28;20673;-71
2022/06/12 05:36:58;;;;;;;10.55;6.30;;;15.70;99.90;;;;;;5095406;28;20289;-70
2022/06/12 05:39:25;;;;;;;9.93;5.93;;;15.70;99.90;;;;;;5096528;28;20173;-70
2022/06/12 05:41:52;;;;;;;8.10;5.88;;;15.80;99.90;;;;;;5096448;28;20181;-70
2022/06/12 05:44:19;;;;;;;8.70;5.70;;;15.80;99.90;;;;;;5094787;28;20204;-70
2022/06/12 05:46:45;;;;;;;12.02;5.80;;;15.90;99.90;;;;;;5096275;28;20177;-70
2022/06/12 05:49:12;;;;;;;9.25;6.00;;;16.00;99.90;;;;;;5096036;28;20170;-70
2022/06/12 05:51:38;;;;;;;12.40;5.75;;;16.00;99.90;;;;;;5095995;28;20154;-70
2022/06/12 05:54:04;;;;;;;8.15;4.70;;;16.00;99.90;;;;;;5096093;28;20164;-70
2022/06/12 05:56:32;;;;;;;9.20;5.55;;;16.10;99.90;;;;;;5095821;28;20543;-70
2022/06/12 05:58:59;;;;;;;8.77;5.07;;;16.10;99.90;;;;;;5096172;28;20180;-70
2022/06/12 06:01:26;;;;;;;11.43;5.68;;;16.20;99.90;;;;;;5096164;28;20169;-70
2022/06/12 06:03:52;;;;;;;7.88;5.32;;;16.30;99.90;;;;;;5095727;28;20658;-70
2022/06/12 06:06:25;;;;;;;6.90;4.90;;;16.40;99.90;;;;;;5095939;28;20209;-70
2022/06/12 06:08:51;;;;;;;9.82;4.72;;;16.50;99.90;;;;;;5096046;28;20254;-70
2022/06/12 06:11:17;;;;;;;12.20;4.55;;;16.60;99.90;;;;;;5096429;28;20560;-70
2022/06/12 06:13:43;;;;;;;10.52;4.50;;;16.60;99.90;;;;;;5095445;28;20256;-70
2022/06/12 06:16:09;;;;;;;11.93;4.97;;;16.70;99.90;;;;;;5095733;28;20244;-70
2022/06/12 06:18:36;;;;;;;9.52;4.60;;;16.80;99.90;;;;;;5095517;28;20634;-70
2022/06/12 06:21:02;;;;;;;10.40;4.93;;;16.90;99.90;;;;;;5095421;28;20651;-70
2022/06/12 06:23:28;;;;;;;11.65;4.57;;;17.00;99.90;;;;;;5095648;28;20193;-70
2022/06/12 06:25:54;;;;;;;11.40;4.88;;;17.10;99.90;;;;;;5095088;28;20660;-70
2022/06/12 06:28:20;;;;;;;7.05;4.20;;;17.20;99.90;;;;;;5095449;28;20244;-70
2022/06/12 06:30:45;;;;;;;7.10;4.05;;;17.30;99.90;;;;;;5095287;28;20181;-70
2022/06/12 06:33:12;;;;;;;11.05;4.40;;;17.40;99.90;;;;;;5095467;28;20212;-70
2022/06/12 06:35:38;;;;;;;11.07;4.20;;;17.50;99.90;;;;;;5094280;28;20549;-71
2022/06/12 06:38:04;;;;;;;7.57;4.43;;;17.50;99.90;;;;;;5096381;28;20178;-70
2022/06/12 06:40:31;;;;;;;6.55;3.55;;;17.60;99.90;;;;;;5097407;28;20173;-70
2022/06/12 06:42:57;;;;;;;12.82;4.10;;;17.60;99.90;;;;;;5099094;28;20216;-70
2022/06/12 06:48:10;;;;;;;6.28;3.60;;;17.80;99.90;;;;;;5095403;28;20215;-71
2022/06/12 06:50:37;;;;;;;8.05;3.83;;;17.80;99.90;;;;;;5094897;28;20168;-71
2022/06/12 06:53:04;;;;;;;10.30;3.70;;;17.90;99.90;;;;;;5093795;28;20238;-71
2022/06/12 06:55:31;;;;;;;11.80;4.40;;;18.00;99.90;;;;;;5095109;28;20173;-71
2022/06/12 06:57:58;;;;;;;6.18;2.35;;;18.00;99.90;;;;;;5074207;28;20196;-71
2022/06/12 07:00:31;;;;;;;5.70;2.70;;;18.00;99.90;;;;;;5074551;28;20512;-71
2022/06/12 07:02:57;;;;;;;7.80;2.15;;;18.10;99.90;;;;;;5074375;28;20201;-71
2022/06/12 07:05:23;;;;;;;9.43;2.60;;;18.20;99.90;;;;;;5074551;28;20205;-71
2022/06/12 07:07:49;;;;;;;7.30;2.60;;;18.20;99.90;;;;;;5074235;28;20223;-71
2022/06/12 07:10:20;;;;;;;7.40;2.58;;;18.30;99.90;;;;;;5072961;28;20178;-69
2022/06/12 07:12:47;;;;;;;6.07;2.22;;;18.30;99.90;;;;;;5074338;28;20605;-71
2022/06/12 07:15:13;;;;;;;6.53;2.70;;;18.40;99.90;;;;;;5074238;28;20204;-71
2022/06/12 07:17:40;;;;;;;7.13;2.58;;;18.50;99.90;;;;;;5075438;28;20177;-71
2022/06/12 07:20:09;;;;;;;4.75;2.15;;;18.50;99.90;;;;;;5073299;28;20166;-69
2022/06/12 07:22:35;;;;;;;7.18;2.22;;;18.50;99.90;;;;;;5074028;28;20268;-69
2022/06/12 07:25:01;;;;;;;4.53;2.20;;;18.60;99.90;;;;;;5073842;28;20770;-68
2022/06/12 07:27:27;;;;;;;5.35;1.95;;;18.70;99.90;;;;;;5073568;28;20182;-68
2022/06/12 07:29:53;;;;;;;4.75;2.05;;;18.70;99.90;;;;;;5072672;28;20165;-69
2022/06/12 07:32:19;;;;;;;7.90;2.17;;;18.70;99.90;;;;;;5074207;28;20286;-69
2022/06/12 07:34:45;;;;;;;5.07;2.00;;;18.80;99.90;;;;;;5072231;28;20188;-69
2022/06/12 07:37:10;;;;;;;6.63;2.20;;;18.90;99.90;;;;;;5074299;28;20182;-68
2022/06/12 07:39:37;;;;;;;11.27;2.75;;;18.90;99.90;;;;;;5073634;28;20544;-69
2022/06/12 07:42:03;;;;;;;7.30;2.40;;;18.90;99.90;;;;;;5072236;28;20201;-69
2022/06/12 07:44:31;;;;;;;8.82;2.90;;;18.90;99.90;;;;;;5073608;28;20283;-69
2022/06/12 07:46:58;;;;;;;4.97;2.15;;;18.90;99.90;;;;;;5074004;28;20204;-69
2022/06/12 07:49:26;;;;;;;5.43;2.17;;;19.10;99.90;;;;;;5073555;28;20561;-69
2022/06/12 07:51:54;;;;;;;8.23;2.55;;;19.20;99.90;;;;;;5073450;28;20641;-69
2022/06/12 07:54:21;;;;;;;6.60;2.50;;;19.30;99.90;;;;;;5073901;28;20166;-69
2022/06/12 07:56:47;;;;;;;10.00;2.75;;;19.40;99.90;;;;;;5073714;28;20186;-69
2022/06/12 07:59:14;;;;;;;6.03;2.42;;;19.50;99.90;;;;;;5073703;28;20172;-69
2022/06/12 08:01:40;;;;;;;6.35;2.33;;;19.50;99.90;;;;;;5073946;28;20583;-69
2022/06/12 08:04:08;;;;;;;11.38;3.13;;;19.60;99.90;;;;;;5073311;28;20185;-69
2022/06/12 08:06:34;;;;;;;7.10;2.63;;;19.70;99.90;;;;;;5073398;28;20510;-70
2022/06/12 08:09:00;;;;;;;4.72;2.58;;;19.70;99.90;;;;;;5073360;28;20258;-70
2022/06/12 08:11:27;;;;;;;9.05;2.80;;;19.70;99.90;;;;;;5073767;28;20166;-70
2022/06/12 08:13:54;;;;;;;12.10;3.63;;;19.80;99.90;;;;;;5071915;28;20210;-70
2022/06/12 08:16:21;;;;;;;6.90;2.53;;;19.80;99.90;;;;;;5073932;28;20207;-70
2022/06/12 08:18:47;;;;;;;6.43;2.53;;;19.70;99.90;;;;;;5073042;28;20185;-70
2022/06/12 08:21:15;;;;;;;8.02;2.78;;;19.80;99.90;;;;;;5073599;28;20630;-70
2022/06/12 08:23:47;;;;;;;6.38;3.15;;;19.90;99.90;;;;;;5073320;28;20193;-69
2022/06/12 08:26:29;;;;;;;7.53;3.00;;;19.90;99.90;;;;;;5073117;28;20247;-69
2022/06/12 08:29:02;;;;;;;14.93;2.90;;;20.10;99.90;;;;;;5073561;28;20165;-69
2022/06/12 08:31:37;;;;;;;8.43;2.50;;;20.00;99.90;;;;;;5073292;28;20211;-69
2022/06/12 08:34:07;;;;;;;9.52;3.25;;;20.00;99.90;;;;;;5071558;28;20165;-69
2022/06/12 08:36:35;;;;;;;8.15;2.78;;;20.20;99.90;;;;;;5073001;28;20170;-68
2022/06/12 08:39:03;;;;;;;6.40;2.60;;;20.30;99.90;;;;;;5072951;28;20197;-69
2022/06/12 08:41:47;;;;;;;9.75;2.83;;;20.50;99.90;;;;;;5075770;28;20173;-69
2022/06/12 08:44:34;;;;;;;8.52;2.95;;;20.60;99.90;;;;;;5076869;28;20170;-68
2022/06/12 08:47:18;;;;;;;6.95;2.70;;;20.50;99.90;;;;;;5077073;28;20166;-68
2022/06/12 08:49:52;;;;;;;8.88;2.83;;;20.60;99.90;;;;;;5076674;28;20150;-68
2022/06/12 08:52:32;;;;;;;10.20;3.38;;;20.80;99.90;;;;;;5076750;28;20193;-68
2022/06/12 08:55:02;;;;;;;12.77;3.53;;;20.90;99.90;;;;;;5076890;28;20684;-68
2022/06/12 08:57:54;;;;;;;7.25;3.63;;;20.90;99.90;;;;;;5075494;28;20186;-67
2022/06/12 09:00:24;;;;;;;7.22;2.55;;;21.10;99.90;;;;;;5076881;28;20162;-68
2022/06/12 09:02:50;;;;;;;6.57;2.80;;;21.10;99.90;;;;;;5076847;28;20226;-68
2022/06/12 09:05:26;;;;;;;8.27;2.80;;;21.20;99.90;;;;;;5076307;28;20271;-68
2022/06/12 09:07:52;;;;;;;8.65;2.75;;;21.40;99.90;;;;;;5076481;28;20153;-68
2022/06/12 09:10:33;;;;;;;7.28;2.70;;;21.60;99.90;;;;;;5076414;28;20166;-68
2022/06/12 09:13:12;;;;;;;7.28;2.63;;;21.80;99.90;;;;;;5076422;28;20653;-68
2022/06/12 09:15:56;;;;;;;5.55;2.25;;;21.90;99.90;;;;;;5076212;28;20646;-68
2022/06/12 09:18:31;;;;;;;8.93;2.80;;;21.80;99.90;;;;;;5076648;28;20273;-68
2022/06/12 09:21:19;;;;;;;6.20;1.95;;;21.90;99.90;;;;;;5074895;28;20234;-68
2022/06/12 09:23:57;;;;;;;6.03;2.10;;;22.10;99.90;;;;;;5076076;28;20190;-68
2022/06/12 09:26:34;;;;;;;5.55;2.60;;;22.20;99.90;;;;;;5074772;28;20212;-67
2022/06/12 09:29:15;;;;;;;9.68;2.63;;;22.20;99.90;;;;;;5074810;28;20172;-68
2022/06/12 09:32:00;;;;;;;6.45;2.30;;;22.40;99.90;;;;;;5074696;28;20177;-68
2022/06/12 09:34:40;;;;;;;8.88;2.90;;;22.50;99.90;;;;;;5075699;28;20161;-67
2022/06/12 09:40:32;;;;;;;3.53;1.98;;;22.60;99.90;;;;;;5076266;28;20271;-69
2022/06/12 09:43:14;;;;;;;4.15;2.10;;;22.90;99.90;;;;;;5075009;28;20327;-70
2022/06/12 09:46:05;;;;;;;10.07;2.65;;;23.00;99.90;;;;;;5076266;28;20213;-69
2022/06/12 09:48:47;;;;;;;5.20;2.30;;;23.10;99.90;;;;;;5074484;28;20200;-69
2022/06/12 09:51:25;;;;;;;7.65;2.88;;;23.20;99.90;;;;;;5074389;28;20170;-69
2022/06/12 09:54:18;;;;;;;5.00;2.42;;;23.10;99.90;;;;;;5074646;28;20193;-69
2022/06/12 09:57:00;;;;;;;6.10;1.92;;;22.80;99.90;;;;;;5076238;28;20174;-70
2022/06/12 09:59:34;;;;;;;5.20;2.53;;;22.80;99.90;;;;;;5076472;28;20158;-70
2022/06/12 10:02:05;;;;;;;10.18;2.40;;;22.80;99.90;;;;;;5074508;28;20201;-70
2022/06/12 10:05:18;;;;;;;6.07;2.30;;;23.00;99.90;;;;;;5075658;28;20201;-70
2022/06/12 10:08:16;;;;;;;10.55;2.50;;;22.80;99.90;;;;;;5065590;28;20264;-70
2022/06/12 10:11:11;;;;;;;6.80;2.13;;;22.70;99.90;;;;;;5069955;28;20177;-70
2022/06/12 10:13:59;;;;;;;10.63;3.55;;;22.80;99.90;;;;;;5075186;28;20230;-70
2022/06/12 10:16:38;;;;;;;6.65;2.70;;;22.90;99.90;;;;;;5075355;28;20303;-70
2022/06/12 10:19:19;;;;;;;8.57;3.22;;;22.90;99.90;;;;;;5075237;28;20165;-70
2022/06/12 10:21:52;;;;;;;6.88;2.42;;;22.60;99.90;;;;;;5075515;28;20150;-70
2022/06/12 10:24:18;;;;;;;10.18;3.03;;;22.20;99.90;;;;;;5075226;28;20170;-71
2022/06/12 10:27:15;;;;;;;7.47;2.65;;;22.10;99.90;;;;;;5075244;28;20174;-70
2022/06/12 10:29:46;;;;;;;7.38;2.78;;;22.10;99.90;;;;;;5070950;28;20201;-70
2022/06/12 10:32:18;;;;;;;7.70;2.47;;;22.20;99.90;;;;;;5075094;28;20235;-70
2022/06/12 10:34:44;;;;;;;16.92;5.72;;;22.50;99.90;;;;;;5073584;28;20630;-70
2022/06/12 10:37:17;;;;;;;6.93;2.63;;;22.60;99.90;;;;;;5075307;28;20204;-70
2022/06/12 10:39:43;;;;;;;5.03;2.13;;;22.60;99.90;;;;;;5073841;28;20223;-69
2022/06/12 10:42:29;;;;;;;8.55;2.47;;;22.80;99.90;;;;;;5075107;28;20206;-70
2022/06/12 10:44:58;;;;;;;4.60;1.70;;;22.90;99.90;;;;;;5073613;28;20198;-70
2022/06/12 10:47:31;;;;;;;2.55;1.45;;;23.00;99.90;;;;;;5073767;28;20177;-69
2022/06/12 10:50:35;;;;;;;2.50;1.55;;;22.90;99.90;;;;;;5075308;28;20193;-70
2022/06/12 10:53:20;;;;;;;3.40;1.73;;;23.10;99.90;;;;;;5075378;28;20273;-69
2022/06/12 10:56:19;;;;;;;3.60;1.52;;;23.10;99.90;;;;;;5074778;28;20180;-70
2022/06/12 10:59:12;;;;;;;2.55;1.20;;;23.00;99.90;;;;;;5075755;28;20158;-69
2022/06/12 11:02:05;;;;;;;3.60;1.17;;;23.20;99.90;;;;;;5072938;28;20174;-70
2022/06/12 11:04:50;;;;;;;3.35;1.10;;;23.40;99.90;;;;;;5075071;28;20604;-68
2022/06/12 11:07:40;;;;;;;2.45;1.40;;;23.60;99.90;;;;;;5076367;28;20166;-69
2022/06/12 11:10:22;;;;;;;5.57;1.63;;;23.90;99.90;;;;;;5075730;28;20671;-70
2022/06/12 11:13:00;;;;;;;5.38;1.90;;;23.90;99.90;;;;;;5074208;28;20198;-70
2022/06/12 11:16:03;;;;;;;4.30;1.92;;;23.90;99.90;;;;;;5076281;28;20185;-69
2022/06/12 11:18:50;;;;;;;3.13;1.88;;;23.80;99.90;;;;;;5077303;28;20169;-69
2022/06/12 11:21:34;;;;;;;4.05;1.40;;;23.60;99.90;;;;;;5082652;28;20177;-80
2022/06/12 11:24:06;;;;;;;4.95;2.00;;;23.80;99.90;;;;;;5080149;28;20608;-70
2022/06/12 11:27:04;;;;;;;4.60;1.40;;;23.90;99.90;;;;;;5078916;28;20185;-70
2022/06/12 11:29:46;;;;;;;4.82;2.60;;;24.00;99.90;;;;;;5076957;28;20153;-70
2022/06/12 11:32:17;;;;;;;3.13;2.08;;;24.10;99.90;;;;;;5074504;28;20204;-70
2022/06/12 11:35:02;;;;;;;2.72;1.42;;;24.10;99.90;;;;;;5074733;28;20221;-70
2022/06/12 11:37:46;;;;;;;4.05;1.63;;;24.20;99.90;;;;;;5073343;28;20543;-70
2022/06/12 11:40:18;;;;;;;3.35;1.52;;;24.20;99.90;;;;;;5073654;28;20260;-69
2022/06/12 11:43:04;;;;;;;3.20;1.80;;;24.30;99.90;;;;;;5073369;28;20197;-69
2022/06/12 11:45:48;;;;;;;5.40;1.77;;;24.60;99.90;;;;;;5053330;28;20221;-69
2022/06/12 11:48:25;;;;;;;7.00;1.90;;;25.00;99.90;;;;;;5072712;28;20162;-69
2022/06/12 11:51:12;;;;;;;5.47;1.77;;;25.20;99.90;;;;;;5073985;28;20166;-69
2022/06/12 11:53:44;;;;;;;5.38;1.55;;;25.00;99.90;;;;;;5072544;28;20363;-69
2022/06/12 11:56:45;;;;;;;4.68;2.22;;;25.00;99.90;;;;;;5074286;28;20513;-69
2022/06/12 11:59:23;;;;;;;5.80;1.88;;;24.70;99.90;;;;;;5074180;28;20242;-69
2022/06/12 12:02:13;;;;;;;6.50;1.85;;;24.90;99.90;;;;;;5072546;28;20215;-69
2022/06/12 12:04:56;;;;;;;7.05;1.95;;;25.00;99.90;;;;;;5072287;28;20189;-70
2022/06/12 12:07:52;;;;;;;5.00;1.63;;;24.80;99.90;;;;;;5074042;28;20166;-70
2022/06/12 12:10:21;;;;;;;3.03;1.52;;;25.20;99.90;;;;;;5072413;28;20247;-69
2022/06/12 12:12:54;;;;;;;6.25;1.80;;;25.00;99.90;;;;;;5071946;28;20201;-70
2022/06/12 12:15:25;;;;;;;4.57;1.92;;;25.50;99.90;;;;;;5073288;28;20186;-69
2022/06/12 12:17:53;;;;;;;6.07;2.30;;;25.30;99.90;;;;;;5072813;28;20215;-69
2022/06/12 12:20:53;;;;;;;6.93;2.00;;;25.40;99.90;;;;;;5073623;28;20244;-70
2022/06/12 12:23:25;;;;;;;8.32;1.88;;;25.90;99.90;;;;;;5061697;28;20205;-69
2022/06/12 12:25:58;;;;;;;7.43;1.95;;;25.90;99.90;;;;;;5073197;28;20197;-70
2022/06/12 12:28:39;;;;;;;4.43;1.90;;;25.90;99.90;;;;;;5073869;28;20587;-68
2022/06/12 12:31:15;;;;;;;6.15;2.17;;;25.90;99.90;;;;;;5073798;28;20186;-71
2022/06/12 12:33:43;;;;;;;7.22;2.33;;;26.20;99.90;;;;;;5073130;28;20686;-69
2022/06/12 12:41:48;;;;;;;6.90;2.35;;;25.00;99.90;;;;;;5073416;28;20156;-70
2022/06/12 12:44:36;;;;;;;4.07;2.13;;;25.10;99.90;;;;;;5073007;28;20239;-69
2022/06/12 12:47:04;;;;;;;6.68;2.22;;;24.60;99.90;;;;;;5072701;28;20564;-69
2022/06/12 12:49:36;;;;;;;4.93;2.53;;;24.90;99.90;;;;;;5071672;28;20177;-69
2022/06/12 12:52:11;;;;;;;6.20;1.90;;;25.50;99.90;;;;;;5073077;28;20264;-70
2022/06/12 12:54:56;;;;;;;5.90;2.22;;;25.30;99.90;;;;;;5072155;28;20161;-69
2022/06/12 12:57:43;;;;;;;5.35;2.35;;;25.10;99.90;;;;;;5072790;28;20185;-70
2022/06/12 13:00:18;;;;;;;6.32;2.33;;;25.50;99.90;;;;;;5074152;28;20239;-69
2022/06/12 13:02:54;;;;;;;9.90;2.35;;;25.30;99.90;;;;;;5073616;28;20193;-69
2022/06/12 13:05:24;;;;;;;6.15;2.20;;;24.80;99.90;;;;;;5073827;28;20664;-71
2022/06/12 13:08:17;;;;;;;6.30;2.00;;;24.50;99.90;;;;;;5073973;28;20163;-71
2022/06/12 13:11:00;;;;;;;5.55;2.00;;;24.70;99.90;;;;;;5073675;28;20170;-71
2022/06/12 13:14:04;;;;;;;5.63;2.45;;;24.40;99.90;;;;;;5073443;28;20185;-72
2022/06/12 13:17:01;;;;;;;4.15;2.00;;;24.80;99.90;;;;;;5072547;28;20206;-71
2022/06/12 13:19:39;;;;;;;5.47;2.00;;;25.10;99.90;;;;;;5072931;28;20211;-72
2022/06/12 13:22:49;;;;;;;5.22;2.20;;;24.70;99.90;;;;;;5073053;28;20194;-71
2022/06/12 13:25:40;;;;;;;7.72;2.42;;;24.40;99.90;;;;;;5073185;28;20224;-72
2022/06/12 13:28:25;;;;;;;4.95;2.10;;;24.70;99.90;;;;;;5076687;28;20208;-72
2022/06/12 13:30:52;;;;;;;6.35;2.10;;;25.00;99.90;;;;;;5076962;28;20547;-72
2022/06/12 13:33:21;;;;;;;6.53;2.20;;;25.00;99.90;;;;;;5076487;28;20560;-71
2022/06/12 13:35:52;;;;;;;8.48;2.03;;;25.20;99.90;;;;;;5076332;28;20170;-69
2022/06/12 13:38:54;;;;;;;6.10;2.20;;;26.10;99.90;;;;;;5076620;28;20177;-69
2022/06/12 13:41:43;;;;;;;7.57;2.13;;;25.80;99.90;;;;;;5076070;28;20536;-71
2022/06/12 13:44:35;;;;;;;6.40;2.70;;;26.10;99.90;;;;;;5076295;28;20169;-71
2022/06/12 13:47:21;;;;;;;6.40;2.42;;;25.20;99.90;;;;;;5074736;28;20652;-71